sensor_id;sensor_type;location;lat;lon;timestamp;temperature;humidity
65826;DHT22;52586;-43.152;172.732;2023-05-02T00:00:44;18.70;59.70
65826;DHT22;52586;-43.152;172.732;2023-05-02T00:03:15;18.80;59.70
65826;DHT22;52586;-43.152;172.732;2023-05-02T00:05:47;18.80;59.70
65826;DHT22;52586;-43.152;172.732;2023-05-02T00:08:17;18.70;59.60
65826;DHT22;52586;-43.152;172.732;2023-05-02T00:10:50;18.80;59.70
65826;DHT22;52586;-43.152;172.732;2023-05-02T00:13:20;18.80;59.80
65826;DHT22;52586;-43.152;172.732;2023-05-02T00:15:51;18.90;59.80
65826;DHT22;52586;-43.152;172.732;2023-05-02T00:18:22;18.90;59.70
65826;DHT22;52586;-43.152;172.732;2023-05-02T00:20:54;18.90;59.70
65826;DHT22;52586;-43.152;172.732;2023-05-02T00:23:24;19.00;59.70
65826;DHT22;52586;-43.152;172.732;2023-05-02T00:25:57;19.00;59.70
65826;DHT22;52586;-43.152;172.732;2023-05-02T00:28:27;19.00;59.80
65826;DHT22;52586;-43.152;172.732;2023-05-02T00:30:58;19.10;60.00
65826;DHT22;52586;-43.152;172.732;2023-05-02T00:33:29;19.10;60.00
65826;DHT22;52586;-43.152;172.732;2023-05-02T00:35:59;19.10;60.00
65826;DHT22;52586;-43.152;172.732;2023-05-02T00:38:30;19.10;59.90
65826;DHT22;52586;-43.152;172.732;2023-05-02T00:41:03;19.20;59.90
65826;DHT22;52586;-43.152;172.732;2023-05-02T00:43:33;19.20;59.90
65826;DHT22;52586;-43.152;172.732;2023-05-02T00:46:06;19.20;59.80
65826;DHT22;52586;-43.152;172.732;2023-05-02T00:48:39;19.30;59.90
65826;DHT22;52586;-43.152;172.732;2023-05-02T00:51:10;19.30;59.90
65826;DHT22;52586;-43.152;172.732;2023-05-02T00:53:41;19.30;60.00
65826;DHT22;52586;-43.152;172.732;2023-05-02T00:56:13;19.40;60.10
65826;DHT22;52586;-43.152;172.732;2023-05-02T00:58:44;19.40;60.00
65826;DHT22;52586;-43.152;172.732;2023-05-02T01:01:25;19.40;59.90
65826;DHT22;52586;-43.152;172.732;2023-05-02T01:04:07;19.50;60.00
65826;DHT22;52586;-43.152;172.732;2023-05-02T01:06:58;19.50;60.00
65826;DHT22;52586;-43.152;172.732;2023-05-02T01:09:41;19.50;59.90
65826;DHT22;52586;-43.152;172.732;2023-05-02T01:12:24;19.60;60.20
65826;DHT22;52586;-43.152;172.732;2023-05-02T01:14:57;19.60;60.20
65826;DHT22;52586;-43.152;172.732;2023-05-02T01:17:29;19.70;60.10
65826;DHT22;52586;-43.152;172.732;2023-05-02T01:20:03;19.70;60.00
65826;DHT22;52586;-43.152;172.732;2023-05-02T01:22:37;19.70;60.00
65826;DHT22;52586;-43.152;172.732;2023-05-02T01:25:17;19.80;60.00
65826;DHT22;52586;-43.152;172.732;2023-05-02T01:28:04;19.80;60.00
65826;DHT22;52586;-43.152;172.732;2023-05-02T01:30:41;19.80;59.90
65826;DHT22;52586;-43.152;172.732;2023-05-02T01:33:15;19.90;59.90
65826;DHT22;52586;-43.152;172.732;2023-05-02T01:35:50;19.90;60.00
65826;DHT22;52586;-43.152;172.732;2023-05-02T01:38:22;19.90;60.80
65826;DHT22;52586;-43.152;172.732;2023-05-02T01:40:54;19.90;60.00
65826;DHT22;52586;-43.152;172.732;2023-05-02T01:43:31;20.00;60.00
65826;DHT22;52586;-43.152;172.732;2023-05-02T01:46:05;20.00;59.90
65826;DHT22;52586;-43.152;172.732;2023-05-02T01:48:36;20.10;60.50
65826;DHT22;52586;-43.152;172.732;2023-05-02T01:51:07;20.10;59.80
65826;DHT22;52586;-43.152;172.732;2023-05-02T01:53:39;20.10;59.90
65826;DHT22;52586;-43.152;172.732;2023-05-02T01:56:10;20.10;59.80
65826;DHT22;52586;-43.152;172.732;2023-05-02T01:58:41;20.20;59.80
65826;DHT22;52586;-43.152;172.732;2023-05-02T02:01:15;20.20;59.80
65826;DHT22;52586;-43.152;172.732;2023-05-02T02:03:46;20.20;59.70
65826;DHT22;52586;-43.152;172.732;2023-05-02T02:06:18;20.20;59.70
65826;DHT22;52586;-43.152;172.732;2023-05-02T02:08:49;20.20;59.70
65826;DHT22;52586;-43.152;172.732;2023-05-02T02:11:24;20.30;59.70
65826;DHT22;52586;-43.152;172.732;2023-05-02T02:14:00;20.30;59.70
65826;DHT22;52586;-43.152;172.732;2023-05-02T02:16:37;20.30;59.80
65826;DHT22;52586;-43.152;172.732;2023-05-02T02:19:12;20.40;59.90
65826;DHT22;52586;-43.152;172.732;2023-05-02T02:21:43;20.40;59.80
65826;DHT22;52586;-43.152;172.732;2023-05-02T02:24:17;20.40;59.70
65826;DHT22;52586;-43.152;172.732;2023-05-02T02:26:51;20.40;59.70
65826;DHT22;52586;-43.152;172.732;2023-05-02T02:29:21;20.40;59.70
65826;DHT22;52586;-43.152;172.732;2023-05-02T02:31:54;20.50;59.70
65826;DHT22;52586;-43.152;172.732;2023-05-02T02:34:24;20.50;59.70
65826;DHT22;52586;-43.152;172.732;2023-05-02T02:36:59;20.50;59.70
65826;DHT22;52586;-43.152;172.732;2023-05-02T02:39:40;20.60;59.90
65826;DHT22;52586;-43.152;172.732;2023-05-02T02:42:15;20.60;60.00
65826;DHT22;52586;-43.152;172.732;2023-05-02T02:44:55;20.60;59.90
65826;DHT22;52586;-43.152;172.732;2023-05-02T02:47:31;20.70;59.90
65826;DHT22;52586;-43.152;172.732;2023-05-02T02:50:13;20.70;59.80
65826;DHT22;52586;-43.152;172.732;2023-05-02T02:52:56;20.70;59.80
65826;DHT22;52586;-43.152;172.732;2023-05-02T02:55:37;20.80;59.80
65826;DHT22;52586;-43.152;172.732;2023-05-02T02:58:20;20.70;59.70
65826;DHT22;52586;-43.152;172.732;2023-05-02T03:00:54;20.80;59.80
65826;DHT22;52586;-43.152;172.732;2023-05-02T03:03:28;20.80;59.80
65826;DHT22;52586;-43.152;172.732;2023-05-02T03:06:00;20.90;59.90
65826;DHT22;52586;-43.152;172.732;2023-05-02T03:08:39;20.90;59.90
65826;DHT22;52586;-43.152;172.732;2023-05-02T03:11:10;20.90;60.00
65826;DHT22;52586;-43.152;172.732;2023-05-02T03:13:40;21.00;60.00
65826;DHT22;52586;-43.152;172.732;2023-05-02T03:16:32;21.00;60.00
65826;DHT22;52586;-43.152;172.732;2023-05-02T03:19:06;21.00;60.00
65826;DHT22;52586;-43.152;172.732;2023-05-02T03:21:37;21.10;60.00
65826;DHT22;52586;-43.152;172.732;2023-05-02T03:24:08;21.10;60.00
65826;DHT22;52586;-43.152;172.732;2023-05-02T03:26:39;21.20;60.00
65826;DHT22;52586;-43.152;172.732;2023-05-02T03:29:10;21.20;60.00
65826;DHT22;52586;-43.152;172.732;2023-05-02T03:31:40;21.30;60.00
65826;DHT22;52586;-43.152;172.732;2023-05-02T03:34:13;21.30;60.00
65826;DHT22;52586;-43.152;172.732;2023-05-02T03:36:43;21.30;59.90
65826;DHT22;52586;-43.152;172.732;2023-05-02T03:39:14;21.40;60.00
65826;DHT22;52586;-43.152;172.732;2023-05-02T03:41:45;21.40;60.00
65826;DHT22;52586;-43.152;172.732;2023-05-02T03:44:15;21.40;60.00
65826;DHT22;52586;-43.152;172.732;2023-05-02T03:46:46;21.50;60.00
65826;DHT22;52586;-43.152;172.732;2023-05-02T03:49:18;21.50;60.00
65826;DHT22;52586;-43.152;172.732;2023-05-02T03:51:49;21.60;60.00
65826;DHT22;52586;-43.152;172.732;2023-05-02T03:54:20;21.60;60.00
65826;DHT22;52586;-43.152;172.732;2023-05-02T03:56:50;21.60;59.90
65826;DHT22;52586;-43.152;172.732;2023-05-02T03:59:22;21.70;59.90
65826;DHT22;52586;-43.152;172.732;2023-05-02T04:01:56;21.70;59.70
65826;DHT22;52586;-43.152;172.732;2023-05-02T04:04:29;21.80;59.70
65826;DHT22;52586;-43.152;172.732;2023-05-02T04:07:01;21.70;59.60
65826;DHT22;52586;-43.152;172.732;2023-05-02T04:09:32;21.80;59.60
65826;DHT22;52586;-43.152;172.732;2023-05-02T04:12:02;21.90;59.60
65826;DHT22;52586;-43.152;172.732;2023-05-02T04:14:33;21.90;59.50
65826;DHT22;52586;-43.152;172.732;2023-05-02T04:17:04;21.90;59.50
65826;DHT22;52586;-43.152;172.732;2023-05-02T04:19:36;22.00;59.50
65826;DHT22;52586;-43.152;172.732;2023-05-02T04:22:07;21.90;59.40
65826;DHT22;52586;-43.152;172.732;2023-05-02T04:24:37;22.00;59.40
65826;DHT22;52586;-43.152;172.732;2023-05-02T04:27:08;22.00;59.40
65826;DHT22;52586;-43.152;172.732;2023-05-02T04:29:39;22.00;59.40
65826;DHT22;52586;-43.152;172.732;2023-05-02T04:32:09;22.00;59.40
65826;DHT22;52586;-43.152;172.732;2023-05-02T04:34:42;22.00;59.40
65826;DHT22;52586;-43.152;172.732;2023-05-02T04:37:12;22.10;59.40
65826;DHT22;52586;-43.152;172.732;2023-05-02T04:39:43;22.10;59.40
65826;DHT22;52586;-43.152;172.732;2023-05-02T04:42:14;22.10;59.30
65826;DHT22;52586;-43.152;172.732;2023-05-02T04:44:44;22.10;59.30
65826;DHT22;52586;-43.152;172.732;2023-05-02T04:47:15;22.20;59.30
65826;DHT22;52586;-43.152;172.732;2023-05-02T04:49:47;22.20;59.20
65826;DHT22;52586;-43.152;172.732;2023-05-02T04:52:18;22.20;59.20
65826;DHT22;52586;-43.152;172.732;2023-05-02T04:54:49;22.20;59.10
65826;DHT22;52586;-43.152;172.732;2023-05-02T04:57:20;22.30;59.20
65826;DHT22;52586;-43.152;172.732;2023-05-02T04:59:50;22.30;59.20
65826;DHT22;52586;-43.152;172.732;2023-05-02T05:02:21;22.30;59.10
65826;DHT22;52586;-43.152;172.732;2023-05-02T05:04:54;22.30;59.20
65826;DHT22;52586;-43.152;172.732;2023-05-02T05:07:25;22.30;59.20
65826;DHT22;52586;-43.152;172.732;2023-05-02T05:09:55;22.30;59.10
65826;DHT22;52586;-43.152;172.732;2023-05-02T05:12:26;22.30;59.10
65826;DHT22;52586;-43.152;172.732;2023-05-02T05:14:56;22.30;59.10
65826;DHT22;52586;-43.152;172.732;2023-05-02T05:17:27;22.40;59.10
65826;DHT22;52586;-43.152;172.732;2023-05-02T05:20:00;22.40;59.10
65826;DHT22;52586;-43.152;172.732;2023-05-02T05:22:30;22.40;59.10
65826;DHT22;52586;-43.152;172.732;2023-05-02T05:25:01;22.40;59.00
65826;DHT22;52586;-43.152;172.732;2023-05-02T05:27:33;22.40;59.00
65826;DHT22;52586;-43.152;172.732;2023-05-02T05:30:04;22.40;58.90
65826;DHT22;52586;-43.152;172.732;2023-05-02T05:32:35;22.50;59.00
65826;DHT22;52586;-43.152;172.732;2023-05-02T05:35:08;22.40;58.90
65826;DHT22;52586;-43.152;172.732;2023-05-02T05:37:39;22.50;58.90
65826;DHT22;52586;-43.152;172.732;2023-05-02T05:40:10;22.50;58.80
65826;DHT22;52586;-43.152;172.732;2023-05-02T05:42:41;22.50;58.80
65826;DHT22;52586;-43.152;172.732;2023-05-02T05:45:12;22.50;58.80
65826;DHT22;52586;-43.152;172.732;2023-05-02T05:47:43;22.50;58.80
65826;DHT22;52586;-43.152;172.732;2023-05-02T05:50:16;22.50;58.90
65826;DHT22;52586;-43.152;172.732;2023-05-02T05:52:46;22.50;58.90
65826;DHT22;52586;-43.152;172.732;2023-05-02T05:55:17;22.50;58.90
65826;DHT22;52586;-43.152;172.732;2023-05-02T05:57:48;22.50;58.80
65826;DHT22;52586;-43.152;172.732;2023-05-02T06:00:19;22.50;58.80
65826;DHT22;52586;-43.152;172.732;2023-05-02T06:02:49;22.50;58.80
65826;DHT22;52586;-43.152;172.732;2023-05-02T06:05:22;22.50;58.80
65826;DHT22;52586;-43.152;172.732;2023-05-02T06:07:52;22.50;58.80
65826;DHT22;52586;-43.152;172.732;2023-05-02T06:10:23;22.50;58.70
65826;DHT22;52586;-43.152;172.732;2023-05-02T06:12:54;22.60;58.80
65826;DHT22;52586;-43.152;172.732;2023-05-02T06:15:24;22.50;58.70
65826;DHT22;52586;-43.152;172.732;2023-05-02T06:17:55;22.60;58.80
65826;DHT22;52586;-43.152;172.732;2023-05-02T06:20:28;22.60;58.70
65826;DHT22;52586;-43.152;172.732;2023-05-02T06:22:58;22.60;58.70
65826;DHT22;52586;-43.152;172.732;2023-05-02T06:25:29;22.60;58.70
65826;DHT22;52586;-43.152;172.732;2023-05-02T06:28:00;22.50;58.70
65826;DHT22;52586;-43.152;172.732;2023-05-02T06:30:31;22.60;58.70
65826;DHT22;52586;-43.152;172.732;2023-05-02T06:33:04;22.50;58.70
65826;DHT22;52586;-43.152;172.732;2023-05-02T06:35:36;22.60;58.80
65826;DHT22;52586;-43.152;172.732;2023-05-02T06:38:07;22.60;58.70
65826;DHT22;52586;-43.152;172.732;2023-05-02T06:40:39;22.60;58.70
65826;DHT22;52586;-43.152;172.732;2023-05-02T06:43:11;22.60;58.70
65826;DHT22;52586;-43.152;172.732;2023-05-02T06:45:42;22.60;58.70
65826;DHT22;52586;-43.152;172.732;2023-05-02T06:48:13;22.60;58.70
65826;DHT22;52586;-43.152;172.732;2023-05-02T06:50:45;22.60;58.60
65826;DHT22;52586;-43.152;172.732;2023-05-02T06:53:16;22.60;58.60
65826;DHT22;52586;-43.152;172.732;2023-05-02T06:55:47;22.60;58.60
65826;DHT22;52586;-43.152;172.732;2023-05-02T06:58:17;22.60;58.50
65826;DHT22;52586;-43.152;172.732;2023-05-02T07:00:48;22.60;58.50
65826;DHT22;52586;-43.152;172.732;2023-05-02T07:03:19;22.60;58.50
65826;DHT22;52586;-43.152;172.732;2023-05-02T07:05:51;22.50;58.40
65826;DHT22;52586;-43.152;172.732;2023-05-02T07:08:22;22.60;58.50
65826;DHT22;52586;-43.152;172.732;2023-05-02T07:10:53;22.60;58.50
65826;DHT22;52586;-43.152;172.732;2023-05-02T07:13:23;22.50;58.40
65826;DHT22;52586;-43.152;172.732;2023-05-02T07:15:54;22.50;58.40
65826;DHT22;52586;-43.152;172.732;2023-05-02T07:18:25;22.50;58.50
65826;DHT22;52586;-43.152;172.732;2023-05-02T07:20:57;22.60;58.60
65826;DHT22;52586;-43.152;172.732;2023-05-02T07:23:28;22.60;58.50
65826;DHT22;52586;-43.152;172.732;2023-05-02T07:25:58;22.50;58.40
65826;DHT22;52586;-43.152;172.732;2023-05-02T07:28:29;22.50;58.40
65826;DHT22;52586;-43.152;172.732;2023-05-02T07:31:00;22.60;58.50
65826;DHT22;52586;-43.152;172.732;2023-05-02T07:33:31;22.50;58.40
65826;DHT22;52586;-43.152;172.732;2023-05-02T07:36:04;22.50;58.40
65826;DHT22;52586;-43.152;172.732;2023-05-02T07:38:35;22.60;58.40
65826;DHT22;52586;-43.152;172.732;2023-05-02T07:41:06;22.60;58.40
65826;DHT22;52586;-43.152;172.732;2023-05-02T07:43:36;22.50;58.40
65826;DHT22;52586;-43.152;172.732;2023-05-02T07:46:07;22.60;58.40
65826;DHT22;52586;-43.152;172.732;2023-05-02T07:48:38;22.50;58.30
65826;DHT22;52586;-43.152;172.732;2023-05-02T07:51:11;22.50;58.30
65826;DHT22;52586;-43.152;172.732;2023-05-02T07:53:42;22.50;58.30
65826;DHT22;52586;-43.152;172.732;2023-05-02T07:56:12;22.60;58.40
65826;DHT22;52586;-43.152;172.732;2023-05-02T07:58:43;22.50;58.30
65826;DHT22;52586;-43.152;172.732;2023-05-02T08:01:14;22.50;58.30
65826;DHT22;52586;-43.152;172.732;2023-05-02T08:03:45;22.50;58.40
65826;DHT22;52586;-43.152;172.732;2023-05-02T08:06:18;22.50;58.30
65826;DHT22;52586;-43.152;172.732;2023-05-02T08:08:49;22.50;58.30
65826;DHT22;52586;-43.152;172.732;2023-05-02T08:11:19;22.50;58.40
65826;DHT22;52586;-43.152;172.732;2023-05-02T08:13:52;22.50;58.30
65826;DHT22;52586;-43.152;172.732;2023-05-02T08:16:22;22.50;58.30
65826;DHT22;52586;-43.152;172.732;2023-05-02T08:18:53;22.50;58.30
65826;DHT22;52586;-43.152;172.732;2023-05-02T08:21:25;22.50;58.30
65826;DHT22;52586;-43.152;172.732;2023-05-02T08:23:58;22.50;58.30
65826;DHT22;52586;-43.152;172.732;2023-05-02T08:26:29;22.50;58.30
65826;DHT22;52586;-43.152;172.732;2023-05-02T08:29:00;22.50;58.30
65826;DHT22;52586;-43.152;172.732;2023-05-02T08:31:31;22.50;58.20
65826;DHT22;52586;-43.152;172.732;2023-05-02T08:34:01;22.50;58.20
65826;DHT22;52586;-43.152;172.732;2023-05-02T08:36:34;22.50;58.20
65826;DHT22;52586;-43.152;172.732;2023-05-02T08:39:05;22.50;58.20
65826;DHT22;52586;-43.152;172.732;2023-05-02T08:41:36;22.50;58.30
65826;DHT22;52586;-43.152;172.732;2023-05-02T08:44:07;22.50;58.20
65826;DHT22;52586;-43.152;172.732;2023-05-02T08:46:40;22.50;58.20
65826;DHT22;52586;-43.152;172.732;2023-05-02T08:49:11;22.50;58.30
65826;DHT22;52586;-43.152;172.732;2023-05-02T08:51:49;22.50;58.30
65826;DHT22;52586;-43.152;172.732;2023-05-02T08:54:21;22.40;58.20
65826;DHT22;52586;-43.152;172.732;2023-05-02T08:56:53;22.50;58.20
65826;DHT22;52586;-43.152;172.732;2023-05-02T08:59:26;22.40;58.20
65826;DHT22;52586;-43.152;172.732;2023-05-02T09:02:03;22.40;58.20
65826;DHT22;52586;-43.152;172.732;2023-05-02T09:04:37;22.40;58.20
65826;DHT22;52586;-43.152;172.732;2023-05-02T09:07:12;22.40;58.10
65826;DHT22;52586;-43.152;172.732;2023-05-02T09:09:42;22.40;58.10
65826;DHT22;52586;-43.152;172.732;2023-05-02T09:12:13;22.40;58.10
65826;DHT22;52586;-43.152;172.732;2023-05-02T09:14:44;22.40;58.00
65826;DHT22;52586;-43.152;172.732;2023-05-02T09:17:15;22.40;58.00
65826;DHT22;52586;-43.152;172.732;2023-05-02T09:19:45;22.40;58.00
65826;DHT22;52586;-43.152;172.732;2023-05-02T09:22:25;22.40;58.00
65826;DHT22;52586;-43.152;172.732;2023-05-02T09:24:56;22.40;58.00
65826;DHT22;52586;-43.152;172.732;2023-05-02T09:27:28;22.40;58.00
65826;DHT22;52586;-43.152;172.732;2023-05-02T09:30:18;22.40;58.00
65826;DHT22;52586;-43.152;172.732;2023-05-02T09:32:49;22.40;58.00
65826;DHT22;52586;-43.152;172.732;2023-05-02T09:35:22;22.40;58.00
65826;DHT22;52586;-43.152;172.732;2023-05-02T09:37:55;22.30;57.90
65826;DHT22;52586;-43.152;172.732;2023-05-02T09:40:25;22.30;57.90
65826;DHT22;52586;-43.152;172.732;2023-05-02T09:42:57;22.30;57.90
65826;DHT22;52586;-43.152;172.732;2023-05-02T09:45:28;22.30;57.90
65826;DHT22;52586;-43.152;172.732;2023-05-02T09:48:02;22.30;57.90
65826;DHT22;52586;-43.152;172.732;2023-05-02T09:50:33;22.30;57.90
65826;DHT22;52586;-43.152;172.732;2023-05-02T09:53:07;22.30;57.90
65826;DHT22;52586;-43.152;172.732;2023-05-02T09:55:38;22.30;57.90
65826;DHT22;52586;-43.152;172.732;2023-05-02T09:58:20;22.30;57.90
65826;DHT22;52586;-43.152;172.732;2023-05-02T10:00:51;22.30;57.80
65826;DHT22;52586;-43.152;172.732;2023-05-02T10:03:23;22.30;57.80
65826;DHT22;52586;-43.152;172.732;2023-05-02T10:05:55;22.20;57.80
65826;DHT22;52586;-43.152;172.732;2023-05-02T10:08:28;22.30;57.80
65826;DHT22;52586;-43.152;172.732;2023-05-02T10:10:59;22.20;57.80
65826;DHT22;52586;-43.152;172.732;2023-05-02T10:13:31;22.20;57.90
65826;DHT22;52586;-43.152;172.732;2023-05-02T10:16:02;22.20;57.80
65826;DHT22;52586;-43.152;172.732;2023-05-02T10:18:40;22.20;57.70
65826;DHT22;52586;-43.152;172.732;2023-05-02T10:21:13;22.20;57.80
65826;DHT22;52586;-43.152;172.732;2023-05-02T10:23:47;22.20;57.80
65826;DHT22;52586;-43.152;172.732;2023-05-02T10:26:20;22.20;57.70
65826;DHT22;52586;-43.152;172.732;2023-05-02T10:28:50;22.20;57.70
65826;DHT22;52586;-43.152;172.732;2023-05-02T10:31:22;22.20;57.70
65826;DHT22;52586;-43.152;172.732;2023-05-02T10:33:53;22.20;57.70
65826;DHT22;52586;-43.152;172.732;2023-05-02T10:36:25;22.20;57.70
65826;DHT22;52586;-43.152;172.732;2023-05-02T10:38:58;22.20;57.70
65826;DHT22;52586;-43.152;172.732;2023-05-02T10:41:32;22.20;57.70
65826;DHT22;52586;-43.152;172.732;2023-05-02T10:44:03;22.20;57.70
65826;DHT22;52586;-43.152;172.732;2023-05-02T10:46:35;22.20;57.70
65826;DHT22;52586;-43.152;172.732;2023-05-02T10:49:07;22.10;57.60
65826;DHT22;52586;-43.152;172.732;2023-05-02T10:51:39;22.10;57.70
65826;DHT22;52586;-43.152;172.732;2023-05-02T10:54:22;22.10;57.60
65826;DHT22;52586;-43.152;172.732;2023-05-02T10:57:03;22.10;57.60
65826;DHT22;52586;-43.152;172.732;2023-05-02T10:59:36;22.10;57.60
65826;DHT22;52586;-43.152;172.732;2023-05-02T11:05:15;22.10;57.60
65826;DHT22;52586;-43.152;172.732;2023-05-02T11:07:45;22.10;57.60
65826;DHT22;52586;-43.152;172.732;2023-05-02T11:10:27;22.10;57.50
65826;DHT22;52586;-43.152;172.732;2023-05-02T11:12:58;22.10;57.50
65826;DHT22;52586;-43.152;172.732;2023-05-02T11:15:55;22.10;57.50
65826;DHT22;52586;-43.152;172.732;2023-05-02T11:18:26;22.00;57.50
65826;DHT22;52586;-43.152;172.732;2023-05-02T11:21:26;22.10;57.60
65826;DHT22;52586;-43.152;172.732;2023-05-02T11:30:09;22.00;57.50
65826;DHT22;52586;-43.152;172.732;2023-05-02T11:33:15;22.00;57.50
65826;DHT22;52586;-43.152;172.732;2023-05-02T11:35:47;22.00;57.50
65826;DHT22;52586;-43.152;172.732;2023-05-02T11:38:21;22.00;57.50
65826;DHT22;52586;-43.152;172.732;2023-05-02T11:40:56;21.90;57.40
65826;DHT22;52586;-43.152;172.732;2023-05-02T11:43:27;21.90;57.50
65826;DHT22;52586;-43.152;172.732;2023-05-02T11:46:00;21.90;57.50
65826;DHT22;52586;-43.152;172.732;2023-05-02T11:48:32;21.90;57.50
65826;DHT22;52586;-43.152;172.732;2023-05-02T11:51:03;21.90;57.50
65826;DHT22;52586;-43.152;172.732;2023-05-02T11:53:38;21.90;57.50
65826;DHT22;52586;-43.152;172.732;2023-05-02T11:56:09;21.90;57.40
65826;DHT22;52586;-43.152;172.732;2023-05-02T11:58:40;21.90;57.40
65826;DHT22;52586;-43.152;172.732;2023-05-02T12:01:16;21.90;57.30
65826;DHT22;52586;-43.152;172.732;2023-05-02T12:03:47;21.90;57.30
65826;DHT22;52586;-43.152;172.732;2023-05-02T12:06:19;21.90;57.30
65826;DHT22;52586;-43.152;172.732;2023-05-02T12:09:16;21.80;57.20
65826;DHT22;52586;-43.152;172.732;2023-05-02T12:11:52;21.80;57.20
65826;DHT22;52586;-43.152;172.732;2023-05-02T12:14:29;21.80;57.20
65826;DHT22;52586;-43.152;172.732;2023-05-02T12:17:03;21.80;57.20
65826;DHT22;52586;-43.152;172.732;2023-05-02T12:19:34;21.80;57.30
65826;DHT22;52586;-43.152;172.732;2023-05-02T12:22:05;21.80;57.20
65826;DHT22;52586;-43.152;172.732;2023-05-02T12:24:36;21.80;57.30
65826;DHT22;52586;-43.152;172.732;2023-05-02T12:27:11;21.80;57.30
65826;DHT22;52586;-43.152;172.732;2023-05-02T12:29:43;21.80;57.30
65826;DHT22;52586;-43.152;172.732;2023-05-02T12:32:25;21.80;57.30
65826;DHT22;52586;-43.152;172.732;2023-05-02T12:34:56;21.70;57.20
65826;DHT22;52586;-43.152;172.732;2023-05-02T12:37:27;21.80;57.10
65826;DHT22;52586;-43.152;172.732;2023-05-02T12:39:58;21.80;57.10
65826;DHT22;52586;-43.152;172.732;2023-05-02T12:42:29;21.80;57.10
65826;DHT22;52586;-43.152;172.732;2023-05-02T12:45:01;21.80;57.10
65826;DHT22;52586;-43.152;172.732;2023-05-02T12:47:44;21.70;57.10
65826;DHT22;52586;-43.152;172.732;2023-05-02T12:50:15;21.80;57.10
65826;DHT22;52586;-43.152;172.732;2023-05-02T12:52:49;21.70;57.10
65826;DHT22;52586;-43.152;172.732;2023-05-02T12:55:24;21.70;57.10
65826;DHT22;52586;-43.152;172.732;2023-05-02T12:58:01;21.70;57.10
65826;DHT22;52586;-43.152;172.732;2023-05-02T13:00:32;21.70;57.10
65826;DHT22;52586;-43.152;172.732;2023-05-02T13:03:05;21.70;57.10
65826;DHT22;52586;-43.152;172.732;2023-05-02T13:05:36;21.60;57.00
65826;DHT22;52586;-43.152;172.732;2023-05-02T13:08:07;21.70;57.10
65826;DHT22;52586;-43.152;172.732;2023-05-02T13:10:37;21.70;57.10
65826;DHT22;52586;-43.152;172.732;2023-05-02T13:13:08;21.70;57.10
65826;DHT22;52586;-43.152;172.732;2023-05-02T13:15:39;21.70;57.10
65826;DHT22;52586;-43.152;172.732;2023-05-02T13:18:11;21.70;57.10
65826;DHT22;52586;-43.152;172.732;2023-05-02T13:20:43;21.60;57.00
65826;DHT22;52586;-43.152;172.732;2023-05-02T13:23:13;21.60;57.00
65826;DHT22;52586;-43.152;172.732;2023-05-02T13:25:44;21.60;56.90
65826;DHT22;52586;-43.152;172.732;2023-05-02T13:28:15;21.60;56.90
65826;DHT22;52586;-43.152;172.732;2023-05-02T13:30:45;21.60;56.90
65826;DHT22;52586;-43.152;172.732;2023-05-02T13:33:18;21.60;56.90
65826;DHT22;52586;-43.152;172.732;2023-05-02T13:35:48;21.60;56.90
65826;DHT22;52586;-43.152;172.732;2023-05-02T13:38:19;21.60;56.90
65826;DHT22;52586;-43.152;172.732;2023-05-02T13:40:50;21.60;57.00
65826;DHT22;52586;-43.152;172.732;2023-05-02T13:43:21;21.60;57.00
65826;DHT22;52586;-43.152;172.732;2023-05-02T13:45:51;21.60;57.00
65826;DHT22;52586;-43.152;172.732;2023-05-02T13:48:24;21.60;56.90
65826;DHT22;52586;-43.152;172.732;2023-05-02T13:50:54;21.60;56.90
65826;DHT22;52586;-43.152;172.732;2023-05-02T13:53:25;21.50;56.90
65826;DHT22;52586;-43.152;172.732;2023-05-02T13:55:56;21.60;57.00
65826;DHT22;52586;-43.152;172.732;2023-05-02T13:58:26;21.60;57.00
65826;DHT22;52586;-43.152;172.732;2023-05-02T14:00:57;21.60;56.90
65826;DHT22;52586;-43.152;172.732;2023-05-02T14:03:29;21.50;56.90
65826;DHT22;52586;-43.152;172.732;2023-05-02T14:06:00;21.50;56.80
65826;DHT22;52586;-43.152;172.732;2023-05-02T14:08:31;21.50;56.70
65826;DHT22;52586;-43.152;172.732;2023-05-02T14:11:02;21.50;56.70
65826;DHT22;52586;-43.152;172.732;2023-05-02T14:13:33;21.50;56.60
65826;DHT22;52586;-43.152;172.732;2023-05-02T14:16:04;21.50;56.70
65826;DHT22;52586;-43.152;172.732;2023-05-02T14:18:36;21.50;56.60
65826;DHT22;52586;-43.152;172.732;2023-05-02T14:21:07;21.50;56.70
65826;DHT22;52586;-43.152;172.732;2023-05-02T14:23:38;21.50;56.70
65826;DHT22;52586;-43.152;172.732;2023-05-02T14:26:08;21.50;56.80
65826;DHT22;52586;-43.152;172.732;2023-05-02T14:28:39;21.50;56.70
65826;DHT22;52586;-43.152;172.732;2023-05-02T14:31:10;21.50;56.70
65826;DHT22;52586;-43.152;172.732;2023-05-02T14:33:42;21.50;56.70
65826;DHT22;52586;-43.152;172.732;2023-05-02T14:36:13;21.50;56.80
65826;DHT22;52586;-43.152;172.732;2023-05-02T14:38:43;21.50;56.80
65826;DHT22;52586;-43.152;172.732;2023-05-02T14:41:14;21.50;56.80
65826;DHT22;52586;-43.152;172.732;2023-05-02T14:43:45;21.50;56.80
65826;DHT22;52586;-43.152;172.732;2023-05-02T14:46:15;21.50;56.70
65826;DHT22;52586;-43.152;172.732;2023-05-02T14:48:48;21.50;56.70
65826;DHT22;52586;-43.152;172.732;2023-05-02T14:51:18;21.50;56.70
65826;DHT22;52586;-43.152;172.732;2023-05-02T14:53:49;21.40;56.60
65826;DHT22;52586;-43.152;172.732;2023-05-02T14:56:21;21.40;56.50
65826;DHT22;52586;-43.152;172.732;2023-05-02T14:58:52;21.40;56.50
65826;DHT22;52586;-43.152;172.732;2023-05-02T15:01:22;21.50;56.60
65826;DHT22;52586;-43.152;172.732;2023-05-02T15:03:55;21.40;56.60
65826;DHT22;52586;-43.152;172.732;2023-05-02T15:06:28;21.40;56.60
65826;DHT22;52586;-43.152;172.732;2023-05-02T15:09:05;21.40;56.70
65826;DHT22;52586;-43.152;172.732;2023-05-02T15:11:36;21.40;56.60
65826;DHT22;52586;-43.152;172.732;2023-05-02T15:14:06;21.40;56.60
65826;DHT22;52586;-43.152;172.732;2023-05-02T15:16:37;21.40;56.60
65826;DHT22;52586;-43.152;172.732;2023-05-02T15:19:10;21.40;56.60
65826;DHT22;52586;-43.152;172.732;2023-05-02T15:21:40;21.40;56.70
65826;DHT22;52586;-43.152;172.732;2023-05-02T15:24:11;21.40;56.70
65826;DHT22;52586;-43.152;172.732;2023-05-02T15:26:41;21.40;56.70
65826;DHT22;52586;-43.152;172.732;2023-05-02T15:29:12;21.40;56.60